Airfield :
LOGIN :

Register | Disclaimer

   EN    FR    IT 

 










Legend :    VFR   Marginal VFR   IFR   Intensive IFR   Very Intensive IFR
Visi :
Ceiling :
>= 8 km
>= 3000ft
5 to 8 km
1000 to 3000 ft
1500m to 5 km
500 to 1000 ft
800 to 1500m
200 to 500 ft
< 800m
< 200 ft
Symbols :   Thunderstorms  Fog  Heavy snow  Heavy precipitations  Wind > 20 kt
SIGMETs :     Misc.  Thunderstorms  Icing  Turbulence  Mountain Waves  Volcanic Ashes







- Airport Elevation : 1910 ft
- IATA code : RDZ
- Download approach charts


LFCR - Rodez

CURRENT METAR :
  • 170600Z AUTO VRB03KT CAVOK 12/11 Q1019 NOSIG

EXPIRED METARs :
  • 170530Z AUTO VRB02KT CAVOK 10/10 Q1019 NOSIG
  • 170500Z AUTO 12002KT 1200 R31/1300U BCFG FEW001 08/07 Q1019 BECMG 9999 NSW
  • 170430Z AUTO VRB02KT 0350 R31/0450N FG NSC 08/08 Q1019 BECMG 9999 NSW
  • 170400Z AUTO 12002KT 0400 0350 R31/0400D FG VV/// 08/07 Q1019 BECMG CAVOK
  • 170330Z AUTO 15002KT 9999 1700 R31/1200D NSC 07/07 Q1019 TEMPO 0500 FG VV///

TAF TAF LFCR
Valid from the 17 at 06:00 until the 18 at 06:00 UTC


170500Z 1706/1806 VRB02KT CAVOK
BECMG 1721/1723 12008KT
No reported NOTAMs for that airfield.



MET'MAP, your aeronautical weather chart ! - Copyright ORBIFLY December 2007 - Disclaimer

ORBIFLY MET'MAP TEAM :

Programming & Development : Alexandra Zaïnal
Concept & Development : Baudouin d'Aumeries
Co-Development & Prog : Marc-Olivier Méhu
Technical & hardware support : Manuel Goepfert

Contact : metmap@orbifly.com




SOURCES & CREDITS :

   NOAA